首页
METAR-TAF:

METAR-TAF

机场 :

Salt Point, 路易斯安那州, 美国

纬度: 29-33-44N, 经度: 091-31-32W, 海拔: 0米

当前天气观测

该预报发布于44分钟前的22:59 UTC
风速7节,风向,有时为16节阵风,在北转西北东北之间变化
温度 10°C
湿度 87%
气压 1019 hPa

METAR: KP92 022259Z AUTO 01007G16KT 340V040 10/08 A3008 RMK AO1 SLP185 P0003 T01000078

时间: 17:43 (23:43 UTC)


TAF: 丢失

超过4000个机场的气象观测和天气预报(METAR&TAF报告)。

可查询的气象台以黄色和红色小点在地图上表示。

将鼠标移到小点上方,可查看气象台名称。

然后点击查看天气观测和预报。

如需切换地图:点击带黑十字的绿色按钮放大地图;点击带横线的绿色按钮缩小地图;或者点击绿色箭头查看邻近地区的地图。


METAR-TAF: